Fristoe, Missouri
Current Conditions -  °F | °C
As of 12:15 PM on Thursday 23 Oct 2014 (Local Time) from KGLY Reporting Station
Haze Haze  
Wind Chill: 63°   Ceiling: 1200
Heat Index: 63°   Visibility: 5mi
Dew Point: 55°   Wind: 6mph
Humidity: 77%   Direction: 200°SSW
Pressure: 30.16"   Gusts: NA
Location:  38.3166°N, 93.2711°W
Report Text: KGLY 231715Z AUTO 20005KT 5SM HZ OVC012 17/13 A3016 RMK AO2
Loading
Personal Weather Stations






























Interactive Weather Map
Tropical Storm Tracking
New forecast layout! Learn more

10-Day Weather Forecast

Advertisements
Track Severe Weather on mobile